Time;durP1;ratioP1;P1;durP2;ratioP2;P2;SDS_P1;SDS_P2;PMS_P1;PMS_P2;Temp;Humidity;BMP_temperature;BMP_pressure;BME280_temperature;BME280_humidity;BME280_pressure;Samples;Min_cycle;Max_cycle;Signal;HPM_P1;HPM_P2
2023/07/25 00:01:18;;;;;;;12.27;4.77;;;;;;;13.17;100.00;99699.31;4990612;28;20389;-83
2023/07/25 00:03:47;;;;;;;11.23;4.37;;;;;;;13.20;100.00;99709.59;4989018;28;20026;-83
2023/07/25 00:06:13;;;;;;;7.40;3.50;;;;;;;13.21;100.00;99700.56;5006829;28;20034;-84
2023/07/25 00:08:38;;;;;;;11.63;3.90;;;;;;;13.22;100.00;99703.00;4998210;28;20045;-84
2023/07/25 00:11:22;;;;;;;6.88;3.40;;;;;;;13.28;100.00;99701.41;5010243;28;20075;-84
2023/07/25 00:13:48;;;;;;;11.70;3.63;;;;;;;13.23;100.00;99695.81;4999951;28;20703;-84
2023/07/25 00:16:13;;;;;;;12.93;3.85;;;;;;;13.24;100.00;99708.16;5004469;28;20284;-84
2023/07/25 00:18:38;;;;;;;12.27;4.80;;;;;;;13.19;100.00;99698.06;4992301;28;20109;-84
2023/07/25 00:21:04;;;;;;;10.83;3.97;;;;;;;13.12;100.00;99702.59;4997514;28;20473;-83
2023/07/25 00:23:48;;;;;;;7.95;3.22;;;;;;;13.17;100.00;99705.47;4989541;28;20049;-84
2023/07/25 00:26:13;;;;;;;11.47;4.00;;;;;;;13.10;100.00;99699.28;5005169;28;20030;-83
2023/07/25 00:28:38;;;;;;;8.97;3.97;;;;;;;13.10;100.00;99710.81;5005256;28;20057;-83
2023/07/25 00:31:07;;;;;;;11.02;2.85;;;;;;;13.13;100.00;99704.22;4994455;28;20083;-84
2023/07/25 00:33:33;;;;;;;16.15;3.75;;;;;;;13.11;100.00;99709.00;5005350;28;20027;-83
2023/07/25 00:36:17;;;;;;;7.38;3.13;;;;;;;13.13;100.00;99708.78;4992183;28;20048;-84
2023/07/25 00:38:42;;;;;;;11.43;4.30;;;;;;;13.08;100.00;99714.75;5004295;28;20025;-84
2023/07/25 00:41:08;;;;;;;11.40;4.20;;;;;;;12.96;100.00;99689.59;5008993;28;20448;-85
2023/07/25 00:43:33;;;;;;;11.83;3.90;;;;;;;13.00;100.00;99714.94;4992086;28;20066;-85
2023/07/25 00:45:59;;;;;;;10.93;3.00;;;;;;;13.09;100.00;99722.59;4986657;28;20037;-84
2023/07/25 00:48:44;;;;;;;10.45;3.70;;;;;;;13.11;100.00;99722.41;5010047;28;20041;-84
2023/07/25 00:51:10;;;;;;;8.48;3.20;;;;;;;13.01;100.00;99706.69;5013444;28;20365;-83
2023/07/25 00:53:36;;;;;;;12.82;3.47;;;;;;;13.00;100.00;99721.13;5011950;28;20068;-84
2023/07/25 00:56:02;;;;;;;16.75;3.47;;;;;;;12.91;100.00;99700.91;5028610;28;20057;-83
2023/07/25 00:58:29;;;;;;;10.25;3.13;;;;;;;12.94;100.00;99715.75;5012344;28;20433;-84
2023/07/25 01:01:13;;;;;;;12.57;4.57;;;;;;;12.94;100.00;99732.66;5013298;28;20518;-84
2023/07/25 01:03:39;;;;;;;8.25;3.17;;;;;;;12.92;100.00;99729.34;5005869;28;20026;-84
2023/07/25 01:06:09;;;;;;;6.25;2.60;;;;;;;12.88;100.00;99730.78;4996683;28;20037;-84
2023/07/25 01:08:46;;;;;;;8.68;2.83;;;;;;;12.95;100.00;99738.84;5010344;28;20022;-84
2023/07/25 01:11:12;;;;;;;7.90;3.15;;;;;;;12.92;100.00;99740.06;4992554;28;20034;-84
2023/07/25 01:13:37;;;;;;;4.10;2.53;;;;;;;13.00;100.00;99747.91;4983888;28;20018;-84
2023/07/25 01:16:02;;;;;;;9.33;3.07;;;;;;;13.03;100.00;99742.16;5016467;28;20042;-85
2023/07/25 01:18:28;;;;;;;6.93;2.70;;;;;;;13.12;100.00;99748.16;4972169;28;20093;-84
2023/07/25 01:21:13;;;;;;;11.07;3.67;;;;;;;13.16;100.00;99748.56;4989757;28;20096;-84
2023/07/25 01:23:40;;;;;;;5.57;2.80;;;;;;;13.23;100.00;99754.78;4986748;28;20763;-81
2023/07/25 01:26:07;;;;;;;8.00;3.67;;;;;;;13.20;100.00;99742.59;5013161;28;20161;-84
2023/07/25 01:28:33;;;;;;;6.77;3.07;;;;;;;13.19;100.00;99748.16;4976288;28;20117;-84
2023/07/25 01:30:58;;;;;;;9.60;2.83;;;;;;;13.16;100.00;99754.75;5004576;28;20018;-84
2023/07/25 01:33:24;;;;;;;15.13;3.42;;;;;;;13.19;100.00;99761.56;5028182;28;20045;-82
2023/07/25 01:35:49;;;;;;;13.83;4.43;;;;;;;13.19;100.00;99762.38;4995001;28;20042;-84
2023/07/25 01:38:15;;;;;;;6.60;3.00;;;;;;;13.18;100.00;99759.91;5002677;28;20029;-84
2023/07/25 01:40:41;;;;;;;10.00;3.38;;;;;;;13.18;100.00;99759.91;4976426;28;20030;-84
2023/07/25 01:43:07;;;;;;;10.75;3.53;;;;;;;13.23;100.00;99769.00;4991017;28;20041;-84
2023/07/25 01:45:52;;;;;;;8.65;3.42;;;;;;;13.21;100.00;99775.59;4993874;28;20197;-84
2023/07/25 01:48:17;;;;;;;9.40;3.40;;;;;;;13.17;100.00;99777.03;4992284;28;20069;-85
2023/07/25 01:50:43;;;;;;;6.60;3.70;;;;;;;13.22;100.00;99783.41;4992359;28;20481;-84
2023/07/25 01:53:08;;;;;;;11.03;3.67;;;;;;;13.24;100.00;99780.53;5008477;28;20018;-85
2023/07/25 01:55:36;;;;;;;13.67;3.97;;;;;;;13.25;100.00;99787.53;4992526;28;20122;-84
2023/07/25 01:58:20;;;;;;;10.98;3.95;;;;;;;13.24;100.00;99784.03;4998218;28;20498;-84
2023/07/25 02:00:46;;;;;;;7.83;3.40;;;;;;;13.22;100.00;99788.78;5005349;28;20030;-84
2023/07/25 02:03:15;;;;;;;17.42;3.60;;;;;;;13.27;100.00;99801.56;4993248;28;20037;-84
2023/07/25 02:05:41;;;;;;;13.35;3.78;;;;;;;13.27;100.00;99788.16;5000360;28;20037;-84
2023/07/25 02:08:06;;;;;;;15.57;6.13;;;;;;;13.24;100.00;99791.25;4976013;28;20472;-84
2023/07/25 02:10:50;;;;;;;10.27;4.22;;;;;;;13.19;100.00;99788.38;4994671;28;20184;-84
2023/07/25 02:13:15;;;;;;;14.47;4.47;;;;;;;13.20;100.00;99800.72;4976072;28;20117;-84
2023/07/25 02:15:41;;;;;;;11.30;3.57;;;;;;;13.18;100.00;99809.00;5009255;28;20030;-85
2023/07/25 02:18:06;;;;;;;10.87;3.90;;;;;;;13.19;100.00;99804.44;5011522;28;20030;-84
2023/07/25 02:20:32;;;;;;;7.53;3.80;;;;;;;13.25;100.00;99817.03;5011067;28;20273;-83
2023/07/25 02:22:58;;;;;;;12.68;3.88;;;;;;;13.13;100.00;99807.94;4994330;28;20125;-84
2023/07/25 02:25:28;;;;;;;13.82;3.78;;;;;;;13.15;100.00;99806.69;4991856;28;20018;-84
2023/07/25 02:28:12;;;;;;;14.38;4.30;;;;;;;13.19;100.00;99815.16;4986458;28;20161;-84
2023/07/25 02:30:37;;;;;;;17.80;5.37;;;;;;;13.15;100.00;99808.56;4975989;28;20097;-84
2023/07/25 02:33:02;;;;;;;7.80;3.60;;;;;;;13.07;100.00;99805.03;5007745;28;20052;-83
2023/07/25 02:35:28;;;;;;;9.40;4.73;;;;;;;13.07;100.00;99801.53;4976299;28;20902;-84
2023/07/25 02:37:53;;;;;;;9.53;4.10;;;;;;;12.94;100.00;99802.31;4990410;28;20034;-84
2023/07/25 02:40:37;;;;;;;9.00;4.22;;;;;;;12.87;100.00;99801.44;4992158;28;20046;-84
2023/07/25 02:43:06;;;;;;;10.57;5.00;;;;;;;12.83;100.00;99790.31;5024019;28;20109;-84
2023/07/25 02:45:31;;;;;;;13.25;4.30;;;;;;;12.81;100.00;99796.91;4975357;28;20033;-84
2023/07/25 02:47:57;;;;;;;15.07;4.05;;;;;;;12.70;100.00;99795.63;4983748;28;20038;-84
2023/07/25 02:50:22;;;;;;;15.13;4.30;;;;;;;12.56;100.00;99788.56;5008254;28;20030;-85
2023/07/25 02:52:47;;;;;;;18.10;5.07;;;;;;;12.63;100.00;99817.00;4999364;28;20027;-83
2023/07/25 02:55:13;;;;;;;7.53;4.17;;;;;;;12.66;100.00;99805.06;4992618;28;20871;-83
2023/07/25 02:57:38;;;;;;;10.20;3.80;;;;;;;12.68;100.00;99803.84;5006981;28;20451;-83
2023/07/25 03:00:06;;;;;;;10.77;4.20;;;;;;;12.71;100.00;99805.28;5010102;28;20037;-84
2023/07/25 03:02:32;;;;;;;9.60;3.45;;;;;;;12.59;100.00;99809.56;5004540;28;20321;-83
2023/07/25 03:04:57;;;;;;;19.42;5.45;;;;;;;12.53;100.00;99811.19;4983191;28;20434;-84
2023/07/25 03:07:22;;;;;;;16.37;4.23;;;;;;;12.51;100.00;99815.09;4975310;28;20096;-84
2023/07/25 03:09:48;;;;;;;10.17;4.67;;;;;;;12.44;100.00;99817.75;4986039;28;20050;-84
2023/07/25 03:12:32;;;;;;;13.20;4.50;;;;;;;12.49;100.00;99820.66;4992978;28;20041;-84
2023/07/25 03:14:57;;;;;;;24.50;5.37;;;;;;;12.49;100.00;99827.84;4991642;28;20516;-84
2023/07/25 03:17:22;;;;;;;14.87;5.20;;;;;;;12.57;100.00;99828.53;4975316;28;20158;-84
2023/07/25 03:19:48;;;;;;;18.40;6.20;;;;;;;12.52;100.00;99824.78;5002577;28;20863;-84
2023/07/25 03:22:13;;;;;;;20.57;4.43;;;;;;;12.48;100.00;99820.84;4974917;28;20030;-83
2023/07/25 03:24:38;;;;;;;15.63;4.57;;;;;;;12.49;100.00;99817.16;4975109;28;20125;-84
2023/07/25 03:27:04;;;;;;;13.13;4.63;;;;;;;12.44;100.00;99815.06;4991287;28;20034;-84
2023/07/25 03:29:30;;;;;;;14.18;4.47;;;;;;;12.43;100.00;99814.25;4991604;28;20057;-84
2023/07/25 03:31:55;;;;;;;11.23;3.60;;;;;;;12.32;100.00;99803.25;4979060;28;20408;-84
2023/07/25 03:34:20;;;;;;;11.13;4.50;;;;;;;12.38;100.00;99813.16;5009097;28;20500;-84
2023/07/25 03:36:46;;;;;;;14.73;4.10;;;;;;;12.34;100.00;99807.38;5007927;28;20142;-83
2023/07/25 03:39:11;;;;;;;8.90;4.17;;;;;;;12.36;100.00;99809.84;5007658;28;20034;-83
2023/07/25 03:41:36;;;;;;;14.77;4.13;;;;;;;12.39;100.00;99814.84;4991630;28;20041;-83
2023/07/25 03:44:02;;;;;;;13.87;4.80;;;;;;;12.34;100.00;99806.53;4992439;28;20030;-84
2023/07/25 03:46:28;;;;;;;12.50;4.32;;;;;;;12.29;100.00;99817.00;4993199;28;20507;-84
2023/07/25 03:48:53;;;;;;;19.03;4.63;;;;;;;12.24;100.00;99809.56;4991705;28;20042;-84
2023/07/25 03:51:18;;;;;;;20.23;4.73;;;;;;;12.34;100.00;99817.25;5007922;28;20396;-83
2023/07/25 03:54:05;;;;;;;13.50;5.43;;;;;;;12.36;100.00;99809.84;4995755;28;21733;-83
2023/07/25 03:56:31;;;;;;;18.88;4.95;;;;;;;12.43;100.00;99821.41;4996825;28;20061;-84
2023/07/25 03:58:57;;;;;;;13.60;4.30;;;;;;;12.35;100.00;99803.69;5001184;28;20056;-84
2023/07/25 04:01:23;;;;;;;21.33;4.63;;;;;;;12.40;100.00;99805.75;4990796;28;20436;-83
2023/07/25 04:03:48;;;;;;;11.00;4.70;;;;;;;12.40;100.00;99805.75;4989158;28;20085;-83
2023/07/25 04:06:14;;;;;;;19.13;5.33;;;;;;;12.42;100.00;99807.22;4981433;28;20033;-82
2023/07/25 04:08:39;;;;;;;16.73;5.57;;;;;;;12.37;100.00;99806.16;4989647;28;20076;-82
2023/07/25 04:11:04;;;;;;;13.30;4.60;;;;;;;12.34;100.00;99794.00;4989108;28;20034;-83
2023/07/25 04:13:30;;;;;;;14.00;4.40;;;;;;;12.44;100.00;99796.31;5003320;28;20018;-83
2023/07/25 04:16:14;;;;;;;14.32;4.55;;;;;;;12.51;100.00;99802.53;5003230;28;20049;-83
2023/07/25 04:18:39;;;;;;;8.77;4.20;;;;;;;12.55;100.00;99814.50;5011557;28;20034;-83
2023/07/25 04:21:04;;;;;;;10.97;3.70;;;;;;;12.54;100.00;99801.31;4992189;28;20054;-82
2023/07/25 04:23:30;;;;;;;11.30;4.57;;;;;;;12.61;100.00;99808.34;4973876;28;20026;-86
2023/07/25 04:25:55;;;;;;;12.90;4.13;;;;;;;12.71;100.00;99805.28;4992470;28;20026;-87
2023/07/25 04:28:39;;;;;;;6.47;3.53;;;;;;;12.95;100.00;99819.22;4999882;28;20098;-84
2023/07/25 04:31:04;;;;;;;15.67;4.73;;;;;;;12.91;100.00;99804.56;4974575;28;20058;-82
2023/07/25 04:33:30;;;;;;;14.90;3.63;;;;;;;12.92;100.00;99798.16;4974269;28;20026;-82
2023/07/25 04:35:55;;;;;;;11.63;4.37;;;;;;;13.00;100.00;99798.81;4999789;28;20052;-82
2023/07/25 04:38:20;;;;;;;13.43;3.90;;;;;;;13.06;100.00;99794.50;4973657;28;20054;-83
2023/07/25 04:40:46;;;;;;;11.50;4.67;;;;;;;13.19;100.00;99799.09;4997879;28;20316;-84
2023/07/25 04:43:11;;;;;;;12.20;3.60;;;;;;;13.08;100.00;99793.28;4972961;28;20531;-83
2023/07/25 04:45:37;;;;;;;12.23;3.70;;;;;;;13.00;100.00;99785.44;4985903;28;20029;-86
2023/07/25 04:48:03;;;;;;;11.27;3.22;;;;;;;12.85;100.00;99782.06;5016353;28;20058;-83
2023/07/25 04:50:29;;;;;;;16.90;5.47;;;;;;;12.88;100.00;99793.22;4994571;28;20038;-83
2023/07/25 04:52:54;;;;;;;8.87;3.70;;;;;;;12.84;100.00;99786.59;4991360;28;20092;-83
2023/07/25 04:55:20;;;;;;;10.57;3.40;;;;;;;13.02;100.00;99777.19;4975231;28;20049;-85
2023/07/25 04:57:45;;;;;;;7.63;3.17;;;;;;;13.03;100.00;99774.31;4991102;28;20034;-84
2023/07/25 05:00:30;;;;;;;8.52;3.10;;;;;;;13.10;100.00;99783.19;4990037;28;20073;-83
2023/07/25 05:02:55;;;;;;;16.63;3.78;;;;;;;13.30;100.00;99795.84;4999130;28;20053;-83
2023/07/25 05:05:20;;;;;;;14.23;3.30;;;;;;;13.32;100.00;99788.41;4988782;28;20169;-83
2023/07/25 05:07:46;;;;;;;10.70;3.57;;;;;;;13.37;100.00;99780.59;4988834;28;20097;-83
2023/07/25 05:10:11;;;;;;;10.33;3.80;;;;;;;13.57;100.00;99785.16;4989448;28;20113;-83
2023/07/25 05:12:55;;;;;;;8.30;3.38;;;;;;;13.82;100.00;99788.88;4997233;28;20037;-83
2023/07/25 05:15:21;;;;;;;13.30;3.63;;;;;;;14.04;100.00;99785.97;4998143;28;20042;-87
2023/07/25 05:17:46;;;;;;;9.30;3.53;;;;;;;14.18;100.00;99784.91;4990858;28;20027;-84
2023/07/25 05:20:12;;;;;;;8.97;2.93;;;;;;;14.44;100.00;99793.94;4976719;28;20520;-83
2023/07/25 05:22:37;;;;;;;9.57;3.30;;;;;;;14.61;100.00;99791.63;4990347;28;20033;-83
2023/07/25 05:25:21;;;;;;;12.63;3.05;;;;;;;14.81;100.00;99788.88;4994178;28;20057;-83
2023/07/25 05:27:47;;;;;;;9.43;3.27;;;;;;;15.05;100.00;99777.38;4992193;28;20042;-84
2023/07/25 05:30:12;;;;;;;8.37;2.87;;;;;;;15.43;100.00;99763.09;4976374;28;20076;-83
2023/07/25 05:32:39;;;;;;;12.07;3.47;;;;;;;16.12;100.00;99758.56;4992289;28;20716;-83
2023/07/25 05:35:05;;;;;;;9.70;2.42;;;;;;;16.88;100.00;99727.66;4975754;28;20476;-82
2023/07/25 05:37:49;;;;;;;12.50;2.72;;;;;;;17.78;100.00;99681.81;4993173;28;20076;-85
2023/07/25 05:40:14;;;;;;;6.27;1.93;;;;;;;18.10;100.00;99639.88;4975376;28;20520;-86
2023/07/25 05:42:39;;;;;;;5.60;2.23;;;;;;;18.35;100.00;99553.13;4981277;28;20505;-86
2023/07/25 05:45:05;;;;;;;8.10;2.03;;;;;;;18.70;100.00;99472.88;4984260;28;20038;-86
2023/07/25 05:47:30;;;;;;;7.38;2.20;;;;;;;19.33;100.00;99401.25;5016017;28;20087;-84
2023/07/25 05:50:15;;;;;;;6.85;2.28;;;;;;;19.21;100.00;99284.25;5006899;28;20053;-87
2023/07/25 05:52:40;;;;;;;4.70;1.87;;;;;;;19.66;100.00;99209.94;5016554;28;20026;-83
2023/07/25 05:55:06;;;;;;;8.00;2.43;;;;;;;19.91;100.00;99168.72;5008385;28;20054;-85
2023/07/25 05:57:31;;;;;;;3.05;1.60;;;;;;;20.40;100.00;99083.59;4976330;28;20030;-87
2023/07/25 05:59:57;;;;;;;7.47;2.47;;;;;;;19.93;100.00;99027.63;4992660;28;20034;-86
2023/07/25 06:02:41;;;;;;;8.18;2.15;;;;;;;20.45;100.00;98967.03;4989678;28;20112;-86
2023/07/25 06:05:06;;;;;;;6.10;2.33;;;;;;;20.53;100.00;98855.34;5003904;28;20476;-87
2023/07/25 06:07:32;;;;;;;6.85;1.92;;;;;;;21.32;100.00;98808.72;4999006;28;20030;-86
2023/07/25 06:09:57;;;;;;;12.13;2.60;;;;;;;21.24;100.00;98745.81;4992252;28;20065;-86
2023/07/25 06:12:22;;;;;;;7.77;2.37;;;;;;;20.53;100.00;98687.28;4976046;28;20262;-86
2023/07/25 06:14:48;;;;;;;7.90;1.90;;;;;;;21.19;100.00;99019.06;5008688;28;20034;-86
2023/07/25 06:17:13;;;;;;;12.80;2.93;;;;;;;20.10;100.00;98754.63;4992769;28;20026;-87
2023/07/25 06:19:57;;;;;;;6.95;2.28;;;;;;;20.97;100.00;98960.50;4995831;28;20120;-86
2023/07/25 06:22:22;;;;;;;8.47;2.40;;;;;;;20.02;100.00;98665.81;5005978;28;20892;-87
2023/07/25 06:24:48;;;;;;;10.70;2.37;;;;;;;21.05;100.00;98861.50;4983409;28;20444;-87
2023/07/25 06:27:13;;;;;;;10.73;2.10;;;;;;;20.97;100.00;98784.19;4991875;28;20038;-86
2023/07/25 06:29:39;;;;;;;11.97;2.00;;;;;;;21.60;100.00;98869.66;4992094;28;20022;-84
2023/07/25 06:32:23;;;;;;;8.93;2.10;;;;;;;21.96;100.00;98794.19;4998699;28;20503;-84
2023/07/25 06:34:48;;;;;;;11.43;2.80;;;;;;;21.45;100.00;98721.28;4994953;28;20038;-86
2023/07/25 06:37:13;;;;;;;5.67;2.20;;;;;;;21.73;100.00;98909.78;4982874;28;20488;-86
2023/07/25 06:39:39;;;;;;;9.70;2.47;;;;;;;21.77;100.00;98840.22;4982155;28;20026;-85
2023/07/25 06:42:05;;;;;;;7.75;2.15;;;;;;;21.77;100.00;98927.13;4979813;28;20118;-85
2023/07/25 06:44:32;;;;;;;8.52;2.42;;;;;;;21.37;100.00;98703.63;5013389;28;20395;-83
2023/07/25 06:46:57;;;;;;;7.67;2.20;;;;;;;21.82;100.00;98929.84;5001989;28;20054;-83
2023/07/25 06:49:23;;;;;;;7.37;2.07;;;;;;;21.86;100.00;98821.41;4976668;28;20740;-83
2023/07/25 06:51:48;;;;;;;8.57;1.87;;;;;;;21.60;100.00;98733.91;5001051;28;20314;-85
2023/07/25 06:54:14;;;;;;;8.85;1.90;;;;;;;21.12;100.00;98889.13;4997283;28;20484;-82
2023/07/25 06:56:39;;;;;;;7.15;2.42;;;;;;;20.72;100.00;98987.66;4997261;28;20099;-83
2023/07/25 06:59:05;;;;;;;8.73;2.63;;;;;;;21.57;100.00;99046.72;5012231;28;20025;-83
2023/07/25 07:01:49;;;;;;;11.95;2.65;;;;;;;20.42;100.00;98826.66;5019318;28;20056;-84
2023/07/25 07:04:14;;;;;;;10.97;2.70;;;;;;;20.13;100.00;99155.00;5008571;28;20045;-84
2023/07/25 07:06:39;;;;;;;9.73;2.23;;;;;;;18.81;100.00;99273.81;4976456;28;20052;-84
2023/07/25 07:09:05;;;;;;;9.57;2.70;;;;;;;18.82;100.00;99326.78;4994376;28;20129;-82
2023/07/25 07:11:30;;;;;;;11.50;3.50;;;;;;;17.77;100.00;99272.56;4995794;28;20029;-83
2023/07/25 07:13:55;;;;;;;8.63;3.33;;;;;;;17.81;100.00;99495.91;5001477;28;20038;-84
2023/07/25 07:16:21;;;;;;;14.00;3.00;;;;;;;18.36;100.00;99502.59;4987134;28;20070;-84
2023/07/25 07:19:04;;;;;;;9.32;2.15;;;;;;;18.85;100.00;99423.66;5013042;28;20041;-87
2023/07/25 07:21:30;;;;;;;12.70;2.50;;;;;;;19.54;100.00;99488.94;4977333;28;20034;-86
2023/07/25 07:23:55;;;;;;;8.37;2.27;;;;;;;20.01;100.00;99336.72;4988549;28;20026;-87
2023/07/25 07:26:20;;;;;;;5.47;2.00;;;;;;;20.27;100.00;99168.09;4990605;28;20034;-86
2023/07/25 07:28:46;;;;;;;9.80;2.40;;;;;;;19.26;100.00;99094.91;5006938;28;20561;-87
2023/07/25 07:31:30;;;;;;;6.10;2.30;;;;;;;19.25;100.00;99474.78;5017613;28;20049;-87
2023/07/25 07:34:09;;;;;;;6.40;2.00;;;;;;;19.84;100.00;99316.28;4973274;28;20416;-88
2023/07/25 07:36:34;;;;;;;4.60;2.10;;;;;;;19.94;100.00;99381.34;5006278;28;20037;-88
2023/07/25 07:38:59;;;;;;;7.97;2.10;;;;;;;19.03;100.00;99176.41;5021709;28;20037;-88
2023/07/25 07:41:25;;;;;;;8.87;2.53;;;;;;;19.10;100.00;99382.59;4996629;28;20026;-87
2023/07/25 07:43:50;;;;;;;14.20;2.47;;;;;;;18.74;100.00;99474.81;5013808;28;20038;-87
2023/07/25 07:46:15;;;;;;;10.37;2.30;;;;;;;18.66;100.00;99452.78;5006051;28;20089;-88
2023/07/25 07:48:43;;;;;;;8.97;2.70;;;;;;;19.00;100.00;99379.78;4981147;28;20046;-86
2023/07/25 07:51:09;;;;;;;5.93;2.28;;;;;;;18.72;100.00;99265.28;4997764;28;20041;-86
2023/07/25 07:53:34;;;;;;;9.02;2.33;;;;;;;18.20;100.00;99292.69;4988156;28;20021;-86
2023/07/25 07:56:18;;;;;;;10.18;2.10;;;;;;;17.67;100.00;99481.84;5007784;28;20085;-87
2023/07/25 07:58:44;;;;;;;3.72;1.92;;;;;;;17.70;100.00;99516.47;4991517;28;20034;-86
2023/07/25 08:01:28;;;;;;;10.60;3.10;;;;;;;17.89;100.00;99776.34;5003824;28;20077;-86
2023/07/25 08:03:54;;;;;;;19.47;2.70;;;;;;;18.14;100.00;99827.44;4995545;28;20066;-85
2023/07/25 08:06:38;;;;;;;4.53;2.03;;;;;;;18.83;100.00;99807.03;5007259;28;20048;-86
2023/07/25 08:09:04;;;;;;;6.97;2.10;;;;;;;19.03;100.00;99641.63;4992999;28;20034;-86
2023/07/25 08:11:48;;;;;;;8.80;2.40;;;;;;;19.12;100.00;99472.44;4993149;28;20101;-86
2023/07/25 08:14:32;;;;;;;10.50;2.45;;;;;;;20.15;100.00;99212.47;4997148;28;20044;-86
2023/07/25 08:17:16;;;;;;;6.60;2.00;;;;;;;19.82;100.00;98938.22;4990537;28;20053;-86
2023/07/25 08:20:00;;;;;;;14.57;3.08;;;;;;;19.54;100.00;99112.69;5011588;28;20397;-86
2023/07/25 08:22:44;;;;;;;9.82;2.17;;;;;;;18.10;100.00;98761.38;5010837;28;20474;-87
2023/07/25 08:25:28;;;;;;;8.18;3.03;;;;;;;18.33;100.00;99195.06;4989315;28;20048;-87
2023/07/25 08:28:12;;;;;;;7.85;2.60;;;;;;;17.89;100.00;99536.03;4982376;28;20053;-86
2023/07/25 08:31:00;;;;;;;12.23;2.50;;;;;;;17.52;100.00;99802.66;4989829;28;20052;-87
2023/07/25 08:33:44;;;;;;;6.70;3.35;;;;;;;17.11;100.00;100001.13;4988856;28;20041;-87
2023/07/25 08:36:28;;;;;;;7.30;2.53;;;;;;;16.78;100.00;99889.03;4984167;28;20052;-86
2023/07/25 08:39:12;;;;;;;5.75;2.08;;;;;;;16.40;100.00;99801.16;5000573;28;20159;-87
2023/07/25 08:41:58;;;;;;;5.55;1.90;;;;;;;15.81;100.00;99806.06;5008739;28;20079;-86
2023/07/25 08:44:25;;;;;;;10.60;2.05;;;;;;;16.03;100.00;99902.59;5007279;28;20088;-84
2023/07/25 08:46:53;;;;;;;2.47;1.83;;;;;;;16.18;100.00;99913.88;5007513;28;20032;-86
2023/07/25 08:49:40;;;;;;;8.18;2.47;;;;;;;16.21;100.00;99889.19;5014455;28;20053;-87
2023/07/25 08:52:27;;;;;;;6.13;2.55;;;;;;;16.04;100.00;99834.25;5000060;28;20045;-87
2023/07/25 08:55:12;;;;;;;4.00;2.20;;;;;;;16.10;100.00;99975.25;4984541;28;20165;-87
2023/07/25 08:57:57;;;;;;;6.53;2.60;;;;;;;16.01;100.00;99943.22;5003808;28;20693;-87
2023/07/25 09:00:43;;;;;;;7.65;3.22;;;;;;;16.07;100.00;99930.72;4998862;28;20122;-86
2023/07/25 09:03:27;;;;;;;5.65;1.80;;;;;;;16.20;100.00;99859.78;4994926;28;20049;-86
2023/07/25 09:06:13;;;;;;;9.20;2.50;;;;;;;16.55;100.00;99881.63;4985112;28;20053;-87
2023/07/25 09:08:57;;;;;;;9.52;1.88;;;;;;;17.15;100.00;99883.69;5006020;28;20044;-87
2023/07/25 09:11:44;;;;;;;5.13;2.15;;;;;;;17.35;100.00;99815.13;4993149;28;20049;-87
2023/07/25 09:14:28;;;;;;;6.18;2.35;;;;;;;17.36;100.00;99847.28;4993124;28;20048;-87
2023/07/25 09:17:12;;;;;;;9.43;2.60;;;;;;;17.43;100.00;99834.53;4993916;28;20061;-87
2023/07/25 09:19:56;;;;;;;6.80;2.25;;;;;;;17.63;100.00;99772.19;4992733;28;20091;-87
2023/07/25 09:22:46;;;;;;;5.78;1.95;;;;;;;17.92;100.00;99788.53;5007349;28;20048;-88
2023/07/25 09:25:31;;;;;;;4.93;1.60;;;;;;;17.81;100.00;99760.47;4990450;28;20131;-87
2023/07/25 09:27:56;;;;;;;8.20;2.15;;;;;;;18.25;100.00;99776.31;5011225;28;20034;-86
2023/07/25 09:30:27;;;;;;;6.87;2.20;;;;;;;18.55;100.00;99606.69;5014624;28;20095;-87
2023/07/25 09:32:53;;;;;;;5.90;1.88;;;;;;;19.18;100.00;99609.41;5028186;28;20041;-87
2023/07/25 09:35:23;;;;;;;5.17;1.77;;;;;;;19.15;100.00;99388.06;4992694;28;20122;-88
2023/07/25 09:37:53;;;;;;;7.65;1.92;;;;;;;19.67;100.00;99401.13;4992802;28;20504;-87
2023/07/25 09:40:18;;;;;;;5.57;1.55;;;;;;;19.75;100.00;99329.47;4993016;28;20054;-87
2023/07/25 09:42:44;;;;;;;6.40;1.90;;;;;;;19.88;100.00;99339.03;4992957;28;20034;-88
2023/07/25 09:45:10;;;;;;;7.87;2.03;;;;;;;20.40;100.00;99346.50;4976740;28;20073;-87
2023/07/25 09:47:37;;;;;;;4.18;1.60;;;;;;;20.19;100.00;99071.88;4975074;28;20061;-87
2023/07/25 09:50:25;;;;;;;4.53;2.63;;;;;;;20.40;100.00;98951.59;4997189;28;20049;-87
2023/07/25 09:52:50;;;;;;;5.47;1.45;;;;;;;19.27;100.00;98763.81;4990537;28;20027;-87
2023/07/25 09:55:16;;;;;;;5.00;1.60;;;;;;;19.70;100.00;98840.19;5007319;28;20033;-87
2023/07/25 09:57:41;;;;;;;3.38;1.23;;;;;;;20.68;100.00;99073.38;4993330;28;20034;-87
2023/07/25 10:00:07;;;;;;;2.23;0.90;;;;;;;21.07;100.00;99043.78;4994370;28;20101;-87
2023/07/25 10:02:52;;;;;;;3.38;1.45;;;;;;;21.13;100.00;98320.22;4993674;28;20305;-88
2023/07/25 10:05:17;;;;;;;4.85;1.40;;;;;;;20.56;100.00;98439.31;4992653;28;20030;-87
2023/07/25 10:07:43;;;;;;;2.42;1.20;;;;;;;20.24;99.98;98181.31;4976433;28;20117;-88
2023/07/25 10:10:10;;;;;;;5.00;1.45;;;;;;;20.79;99.74;98359.94;4990914;28;20492;-87
2023/07/25 10:12:35;;;;;;;2.88;1.38;;;;;;;21.34;94.82;98229.28;4990651;28;20061;-87
2023/07/25 10:15:01;;;;;;;4.90;1.30;;;;;;;21.63;93.29;98271.75;5000269;28;20073;-87
2023/07/25 10:17:26;;;;;;;3.27;1.30;;;;;;;21.01;91.29;98130.75;5000616;28;20224;-87
2023/07/25 10:20:19;;;;;;;5.35;1.30;;;;;;;21.38;93.64;98392.34;4987293;28;20319;-85
2023/07/25 10:22:46;;;;;;;3.65;1.30;;;;;;;21.61;93.66;98494.69;4990067;28;20061;-86
2023/07/25 10:25:20;;;;;;;4.68;1.08;;;;;;;20.99;92.52;98250.38;4990730;28;20026;-85
2023/07/25 10:27:46;;;;;;;2.95;1.23;;;;;;;20.28;91.33;98062.38;4990576;28;20041;-86
2023/07/25 10:30:24;;;;;;;6.60;1.33;;;;;;;21.36;93.33;98557.38;4994584;28;20408;-85
2023/07/25 10:33:12;;;;;;;3.58;1.00;;;;;;;22.36;86.98;98364.59;5004293;28;20483;-87
2023/07/25 10:35:53;;;;;;;6.88;1.05;;;;;;;22.99;83.22;98227.19;4989885;28;20128;-87
2023/07/25 10:38:34;;;;;;;3.33;1.45;;;;;;;23.59;75.68;97842.94;5006485;28;20030;-88
2023/07/25 10:41:09;;;;;;;4.63;1.50;;;;;;;22.72;72.90;97397.50;4974129;28;20053;-87
2023/07/25 10:43:48;;;;;;;6.50;1.58;;;;;;;21.19;78.33;97647.06;4977253;28;20058;-87
2023/07/25 10:46:16;;;;;;;5.80;1.20;;;;;;;19.48;78.90;97373.91;4989179;28;20061;-88
2023/07/25 10:48:54;;;;;;;7.25;1.70;;;;;;;19.86;84.09;98093.75;4983741;28;20097;-87
2023/07/25 10:51:45;;;;;;;2.42;1.15;;;;;;;21.01;79.14;97932.78;5003989;28;20464;-87
2023/07/25 10:54:12;;;;;;;5.70;1.10;;;;;;;21.20;74.09;97533.91;4987995;28;20031;-88
2023/07/25 10:56:38;;;;;;;10.52;1.67;;;;;;;21.53;74.22;97750.75;4991047;28;20030;-88
2023/07/25 10:59:22;;;;;;;4.50;1.30;;;;;;;22.58;72.26;97850.91;4990262;28;20407;-87
2023/07/25 11:01:48;;;;;;;6.43;1.30;;;;;;;22.36;68.65;97435.94;5005687;28;20042;-88
2023/07/25 11:04:23;;;;;;;4.03;1.40;;;;;;;22.71;72.40;98015.91;4989273;28;20033;-87
2023/07/25 11:06:50;;;;;;;7.63;1.27;;;;;;;22.70;71.30;97901.97;4973506;28;20380;-87
2023/07/25 11:09:15;;;;;;;4.82;1.38;;;;;;;22.59;68.72;97621.41;4975065;28;20026;-88
2023/07/25 11:12:00;;;;;;;4.70;1.20;;;;;;;22.73;71.31;97981.03;5003039;28;20053;-88
2023/07/25 11:14:25;;;;;;;2.47;1.80;;;;;;;22.83;68.67;97690.84;4972887;28;20031;-88
2023/07/25 11:16:52;;;;;;;6.70;1.25;;;;;;;23.12;68.81;97801.84;5008575;28;20034;-88
2023/07/25 11:19:19;;;;;;;5.22;1.67;;;;;;;22.40;69.88;97745.91;4975414;28;20489;-88
2023/07/25 11:21:45;;;;;;;5.55;1.48;;;;;;;21.83;72.86;97963.75;4997191;28;20026;-88
2023/07/25 11:24:39;;;;;;;5.95;1.50;;;;;;;22.59;70.44;97941.41;5000056;28;20120;-88
2023/07/25 11:27:05;;;;;;;4.95;1.67;;;;;;;21.70;67.77;97378.97;4990463;28;20113;-88
2023/07/25 11:29:30;;;;;;;7.70;1.55;;;;;;;21.89;66.17;97371.34;4972958;28;20502;-88
2023/07/25 11:31:56;;;;;;;3.63;1.77;;;;;;;22.56;65.60;97545.91;4989130;28;20064;-88
2023/07/25 11:34:21;;;;;;;3.53;0.88;;;;;;;22.31;62.75;97112.72;4992008;28;20153;-88
2023/07/25 11:37:12;;;;;;;5.65;2.25;;;;;;;23.14;64.18;97620.03;5004318;28;20612;-88